Frolovo, Russia
Current Conditions -  °F | °C
As of 9:30 AM on Sunday 26 Oct 2014 (Local Time) from URWW Reporting Station
Clear Clear  
Wind Chill: 17°   Ceiling: Unl
Heat Index: 23°   Visibility: 6mi
Dew Point: 14°   Wind: 4mph
Humidity: 68%   Direction: 20°NNE
Pressure: 30.65"   Gusts: NA
Location:  49.77°N, 43.65°E
Report Text: URWW 260630Z 02002MPS 010V070 CAVOK M05/M10 Q1038 NOSIG RMKSC070
Loading
Personal Weather Stations






























Interactive Weather Map
Tropical Storm Tracking
New forecast layout! Learn more

10-Day Weather Forecast

Advertisements
Track Severe Weather on mobile